createdAt,value
2019-03-23T00:02:12.720Z,174.62
2019-03-23T00:04:39.217Z,177.22
2019-03-23T00:07:05.830Z,180.30
2019-03-23T00:09:32.127Z,173.65
2019-03-23T00:11:58.638Z,172.53
2019-03-23T00:14:25.498Z,174.90
2019-03-23T00:16:51.899Z,171.60
2019-03-23T00:19:18.303Z,167.98
2019-03-23T00:21:44.825Z,159.85
2019-03-23T00:24:11.270Z,148.65
2019-03-23T00:26:37.697Z,137.77
2019-03-23T00:29:04.107Z,153.87
2019-03-23T00:31:30.529Z,160.30
2019-03-23T00:33:56.923Z,158.90
2019-03-23T00:36:23.464Z,155.48
2019-03-23T00:38:49.932Z,148.43
2019-03-23T00:41:16.326Z,150.47
2019-03-23T00:43:42.775Z,138.60
2019-03-23T00:46:09.155Z,136.22
2019-03-23T00:48:35.613Z,130.22
2019-03-23T00:51:02.096Z,129.07
2019-03-23T00:53:28.937Z,148.00
2019-03-23T00:55:55.881Z,150.03
2019-03-23T00:58:22.276Z,144.00
2019-03-23T01:00:48.915Z,140.05
2019-03-23T01:03:15.304Z,144.50
2019-03-23T01:05:41.616Z,136.92
2019-03-23T01:08:08.100Z,135.72
2019-03-23T01:10:34.542Z,128.82
2019-03-23T01:13:01.117Z,138.25
2019-03-23T01:15:27.659Z,132.12
2019-03-23T01:17:54.090Z,135.03
2019-03-23T01:20:20.619Z,130.03
2019-03-23T01:22:47.027Z,141.90
2019-03-23T01:25:13.783Z,133.07
2019-03-23T01:27:40.407Z,129.45
2019-03-23T01:30:13.423Z,131.43
2019-03-23T01:32:40.011Z,125.12
2019-03-23T01:35:07.511Z,125.53
2019-03-23T01:37:33.927Z,134.87
2019-03-23T01:40:00.365Z,130.43
2019-03-23T01:42:26.854Z,139.82
2019-03-23T01:44:53.182Z,142.60
2019-03-23T01:47:19.464Z,135.48
2019-03-23T01:49:46.211Z,138.22
2019-03-23T01:52:12.709Z,134.60
2019-03-23T01:54:39.515Z,129.40
2019-03-23T01:57:06.146Z,130.82
2019-03-23T01:59:32.671Z,134.18
2019-03-23T02:01:59.963Z,129.75
2019-03-23T02:04:26.410Z,139.07
2019-03-23T02:06:52.800Z,134.60
2019-03-23T02:09:19.375Z,126.10
2019-03-23T02:11:45.862Z,118.42
2019-03-23T02:14:12.251Z,97.92
2019-03-23T02:16:38.600Z,93.35
2019-03-23T02:19:05.030Z,82.92
2019-03-23T02:21:31.415Z,77.00
2019-03-23T02:23:58.004Z,72.53
2019-03-23T02:26:24.489Z,89.92
2019-03-23T02:28:50.783Z,106.03
2019-03-23T02:31:17.931Z,117.37
2019-03-23T02:33:44.440Z,123.58
2019-03-23T02:36:10.881Z,111.97
2019-03-23T02:38:37.532Z,106.60
2019-03-23T02:41:04.277Z,106.25
2019-03-23T02:43:30.836Z,110.32
2019-03-23T02:45:57.314Z,112.68
2019-03-23T02:48:24.131Z,123.47
2019-03-23T02:50:50.644Z,105.27
2019-03-23T02:53:17.143Z,113.15
2019-03-23T02:55:43.999Z,116.57
2019-03-23T02:58:10.633Z,120.02
2019-03-23T03:00:37.170Z,109.63
2019-03-23T03:03:04.013Z,92.22
2019-03-23T03:05:30.504Z,91.97
2019-03-23T03:07:57.185Z,78.85
2019-03-23T03:10:39.169Z,77.20
2019-03-23T03:13:05.725Z,81.35
2019-03-23T03:15:32.312Z,77.50
2019-03-23T03:17:58.911Z,83.55
2019-03-23T03:20:25.607Z,72.45
2019-03-23T03:22:52.011Z,64.85
2019-03-23T03:25:18.683Z,62.20
2019-03-23T03:27:45.069Z,60.55
2019-03-23T03:30:12.660Z,62.50
2019-03-23T03:32:39.183Z,66.45
2019-03-23T03:35:06.332Z,67.08
2019-03-23T03:37:32.711Z,66.25
2019-03-23T03:39:59.122Z,70.37
2019-03-23T03:42:25.781Z,69.22
2019-03-23T03:44:52.200Z,68.00
2019-03-23T03:47:18.726Z,63.08
2019-03-23T03:49:45.081Z,67.58
2019-03-23T03:52:11.523Z,62.75
2019-03-23T03:54:37.963Z,70.45
2019-03-23T03:57:04.543Z,65.00
2019-03-23T03:59:31.528Z,72.22
2019-03-23T04:01:57.919Z,76.35
2019-03-23T04:04:24.419Z,78.37
2019-03-23T04:06:51.083Z,80.07
2019-03-23T04:09:17.547Z,70.85
2019-03-23T04:11:44.158Z,70.55
2019-03-23T04:14:10.455Z,76.77
2019-03-23T04:16:37.220Z,69.25
2019-03-23T04:19:03.639Z,68.47
2019-03-23T04:21:30.206Z,66.40
2019-03-23T04:23:58.293Z,68.80
2019-03-23T04:26:24.751Z,71.30
2019-03-23T04:28:51.139Z,75.12
2019-03-23T04:31:17.717Z,73.07
2019-03-23T04:33:44.150Z,75.95
2019-03-23T04:36:10.547Z,74.62
2019-03-23T04:38:37.119Z,69.90
2019-03-23T04:41:03.634Z,65.25
2019-03-23T04:43:30.447Z,68.80
2019-03-23T04:45:56.838Z,69.72
2019-03-23T04:48:23.469Z,67.67
2019-03-23T04:50:50.201Z,69.47
2019-03-23T04:53:16.835Z,71.20
2019-03-23T04:55:43.219Z,81.60
2019-03-23T04:58:09.746Z,69.95
2019-03-23T05:00:36.045Z,70.25
2019-03-23T05:03:02.797Z,70.62
2019-03-23T05:05:29.281Z,67.30
2019-03-23T05:07:55.682Z,62.75
2019-03-23T05:10:22.109Z,60.35
2019-03-23T05:12:48.883Z,62.13
2019-03-23T05:15:15.630Z,65.08
2019-03-23T05:17:42.110Z,67.45
2019-03-23T05:20:12.084Z,71.95
2019-03-23T05:22:38.463Z,69.65
2019-03-23T05:25:09.079Z,70.95
2019-03-23T05:27:35.794Z,67.95
2019-03-23T05:30:06.035Z,69.03
2019-03-23T05:32:32.923Z,58.20
2019-03-23T05:35:00.279Z,65.95
2019-03-23T05:37:27.011Z,71.60
2019-03-23T05:39:53.446Z,67.17
2019-03-23T05:42:19.777Z,65.92
2019-03-23T05:44:46.178Z,66.10
2019-03-23T05:47:12.703Z,67.25
2019-03-23T05:49:39.141Z,73.62
2019-03-23T05:52:05.874Z,68.10
2019-03-23T05:54:32.256Z,65.62
2019-03-23T05:56:58.785Z,64.00
2019-03-23T05:59:25.079Z,73.75
2019-03-23T06:01:51.710Z,70.35
2019-03-23T06:04:18.359Z,67.20
2019-03-23T06:06:45.214Z,64.05
2019-03-23T06:09:11.912Z,51.98
2019-03-23T06:11:38.463Z,57.65
2019-03-23T06:14:05.002Z,49.93
2019-03-23T06:16:31.626Z,48.35
2019-03-23T06:18:58.433Z,48.60
2019-03-23T06:21:24.851Z,44.48
2019-03-23T06:23:51.271Z,42.20
2019-03-23T06:26:17.811Z,43.78
2019-03-23T06:28:44.115Z,37.13
2019-03-23T06:31:10.749Z,28.42
2019-03-23T06:33:37.271Z,27.00
2019-03-23T06:36:03.820Z,31.60
2019-03-23T06:38:30.558Z,29.52
2019-03-23T06:40:57.067Z,33.18
2019-03-23T06:43:23.526Z,31.75
2019-03-23T06:45:50.451Z,33.60
2019-03-23T06:48:16.999Z,37.05
2019-03-23T06:50:43.407Z,50.60
2019-03-23T06:53:09.915Z,42.25
2019-03-23T06:55:36.237Z,38.00
2019-03-23T06:58:03.170Z,44.35
2019-03-23T07:00:29.711Z,39.42
2019-03-23T07:02:56.096Z,39.73
2019-03-23T07:05:22.743Z,41.48
2019-03-23T07:07:49.229Z,40.03
2019-03-23T07:10:15.909Z,37.63
2019-03-23T07:12:42.426Z,36.42
2019-03-23T07:15:19.484Z,35.45
2019-03-23T07:17:39.654Z,33.50
2019-03-23T07:20:10.486Z,34.00
2019-03-23T07:22:37.275Z,35.38
2019-03-23T07:25:09.887Z,32.03
2019-03-23T07:27:36.375Z,33.63
2019-03-23T07:30:15.073Z,30.43
2019-03-23T07:32:41.561Z,34.78
2019-03-23T07:35:08.703Z,34.92
2019-03-23T07:37:35.048Z,34.08
2019-03-23T07:40:01.507Z,33.30
2019-03-23T07:42:28.458Z,31.97
2019-03-23T07:44:54.942Z,33.83
2019-03-23T07:47:21.502Z,29.32
2019-03-23T07:49:48.027Z,28.65
2019-03-23T07:52:14.532Z,27.73
2019-03-23T07:54:41.098Z,26.93
2019-03-23T07:57:09.339Z,28.65
2019-03-23T07:59:35.881Z,26.75
2019-03-23T08:02:02.343Z,28.80
2019-03-23T08:04:28.954Z,28.90
2019-03-23T08:06:55.323Z,25.65
2019-03-23T08:09:23.560Z,27.07
2019-03-23T08:11:50.098Z,27.80
2019-03-23T08:14:16.384Z,37.08
2019-03-23T08:16:42.758Z,32.93
2019-03-23T08:19:09.066Z,33.48
2019-03-23T08:21:35.676Z,31.65
2019-03-23T08:24:04.923Z,46.88
2019-03-23T08:26:31.319Z,36.17
2019-03-23T08:28:57.741Z,34.18
2019-03-23T08:31:24.351Z,36.85
2019-03-23T08:33:52.088Z,37.98
2019-03-23T08:36:18.699Z,37.58
2019-03-23T08:38:45.196Z,37.50
2019-03-23T08:41:11.775Z,37.17
2019-03-23T08:43:38.471Z,38.28
2019-03-23T08:46:05.194Z,37.88
2019-03-23T08:48:31.509Z,37.98
2019-03-23T08:50:57.847Z,37.88
2019-03-23T08:53:24.238Z,37.15
2019-03-23T08:55:50.875Z,38.80
2019-03-23T08:58:27.458Z,40.28
2019-03-23T09:00:55.085Z,40.85
2019-03-23T09:03:21.478Z,40.75
2019-03-23T09:05:47.892Z,39.10
2019-03-23T09:08:14.334Z,44.48
2019-03-23T09:10:40.673Z,40.63
2019-03-23T09:13:08.490Z,43.13
2019-03-23T09:15:34.906Z,41.40
2019-03-23T09:18:01.683Z,38.55
2019-03-23T09:20:29.526Z,42.10
2019-03-23T09:22:56.113Z,43.40
2019-03-23T09:25:22.734Z,43.65
2019-03-23T09:27:49.155Z,76.57
2019-03-23T09:30:15.669Z,46.90
2019-03-23T09:32:42.244Z,42.85
2019-03-23T09:35:09.013Z,38.85
2019-03-23T09:37:38.170Z,44.88
2019-03-23T09:40:10.786Z,37.17
2019-03-23T09:42:33.845Z,39.10
2019-03-23T09:45:00.424Z,45.73
2019-03-23T09:47:26.823Z,36.33
2019-03-23T09:49:53.223Z,31.52
2019-03-23T09:52:19.631Z,28.95
2019-03-23T09:54:46.538Z,25.23
2019-03-23T09:57:12.963Z,8.98
2019-03-23T09:59:39.362Z,18.48
2019-03-23T10:02:05.801Z,13.45
2019-03-23T10:04:32.095Z,12.15
2019-03-23T10:06:58.901Z,16.25
2019-03-23T10:09:25.297Z,17.73
2019-03-23T10:11:52.425Z,18.70
2019-03-23T10:14:18.879Z,15.48
2019-03-23T10:16:45.348Z,13.48
2019-03-23T10:19:11.771Z,10.68
2019-03-23T10:21:38.320Z,12.58
2019-03-23T10:24:04.819Z,14.28
2019-03-23T10:26:31.229Z,15.18
2019-03-23T10:28:57.776Z,17.17
2019-03-23T10:31:24.366Z,18.90
2019-03-23T10:33:50.852Z,18.32
2019-03-23T10:36:17.286Z,124.92
2019-03-23T10:38:43.689Z,16.55
2019-03-23T10:41:10.003Z,16.25
2019-03-23T10:43:36.462Z,11.78
2019-03-23T10:46:03.354Z,14.60
2019-03-23T10:48:30.041Z,12.13
2019-03-23T10:50:56.639Z,12.53
2019-03-23T10:53:23.507Z,10.28
2019-03-23T10:55:50.075Z,11.12
2019-03-23T10:58:16.470Z,8.05
2019-03-23T11:00:43.013Z,8.80
2019-03-23T11:11:15.853Z,13.70
2019-03-23T11:13:42.458Z,15.23
2019-03-23T11:16:08.993Z,16.35
2019-03-23T11:18:35.432Z,15.50
2019-03-23T11:21:01.895Z,17.23
2019-03-23T11:23:28.330Z,15.10
2019-03-23T11:25:54.678Z,15.60
2019-03-23T11:28:21.368Z,20.12
2019-03-23T11:30:47.817Z,25.77
2019-03-23T11:33:14.155Z,23.22
2019-03-23T11:35:40.704Z,27.20
2019-03-23T11:38:07.117Z,28.42
2019-03-23T11:40:33.561Z,31.87
2019-03-23T11:43:00.063Z,30.15
2019-03-23T11:45:27.315Z,31.85
2019-03-23T11:47:53.663Z,30.65
2019-03-23T11:50:20.121Z,36.45
2019-03-23T11:52:47.164Z,30.37
2019-03-23T11:55:13.830Z,30.12
2019-03-23T11:57:40.352Z,30.43
2019-03-23T12:00:13.414Z,34.18
2019-03-23T12:02:40.230Z,35.60
2019-03-23T12:05:07.491Z,31.42
2019-03-23T12:07:33.920Z,40.65
2019-03-23T12:10:00.404Z,49.90
2019-03-23T12:12:26.718Z,41.80
2019-03-23T12:14:53.316Z,38.85
2019-03-23T12:17:19.711Z,43.17
2019-03-23T12:19:46.007Z,36.85
2019-03-23T12:22:12.718Z,33.63
2019-03-23T12:24:39.312Z,33.78
2019-03-23T12:35:50.275Z,41.18
2019-03-23T12:38:17.417Z,33.95
2019-03-23T12:40:43.720Z,35.98
2019-03-23T12:43:10.134Z,30.72
2019-03-23T12:45:36.418Z,35.10
2019-03-23T12:48:03.069Z,33.95
2019-03-23T12:50:29.467Z,31.20
2019-03-23T12:52:57.461Z,33.28
2019-03-23T12:55:24.227Z,29.57
2019-03-23T12:57:50.659Z,32.93
2019-03-23T13:00:17.387Z,30.62
2019-03-23T13:02:43.954Z,32.38
2019-03-23T13:05:10.555Z,28.05
2019-03-23T13:07:37.051Z,36.00
2019-03-23T13:10:08.191Z,38.78
2019-03-23T13:12:34.690Z,42.58
2019-03-23T13:15:01.204Z,39.83
2019-03-23T13:17:27.761Z,37.50
2019-03-23T13:19:54.062Z,33.67
2019-03-23T13:22:20.459Z,34.27
2019-03-23T13:24:47.228Z,58.25
2019-03-23T13:27:13.510Z,53.80
2019-03-23T13:29:39.953Z,46.80
2019-03-23T13:32:06.433Z,92.85
2019-03-23T13:34:32.742Z,36.90
2019-03-23T13:36:59.215Z,28.00
2019-03-23T13:39:25.679Z,31.87
2019-03-23T13:41:51.966Z,70.12
2019-03-23T13:44:18.736Z,20.95
2019-03-23T13:46:45.337Z,22.10
2019-03-23T13:49:12.721Z,91.75
2019-03-23T13:51:39.251Z,120.30
2019-03-23T13:54:05.968Z,48.38
2019-03-23T13:56:32.412Z,59.70
2019-03-23T13:58:58.837Z,44.08
2019-03-23T14:01:25.519Z,62.00
2019-03-23T14:03:52.238Z,35.15
2019-03-23T14:06:18.572Z,55.65
2019-03-23T14:08:44.975Z,43.60
2019-03-23T14:11:11.707Z,82.08
2019-03-23T14:13:37.990Z,29.05
2019-03-23T14:16:04.405Z,21.97
2019-03-23T14:18:30.840Z,119.95
2019-03-23T14:20:57.155Z,88.45
2019-03-23T14:23:23.675Z,110.20
2019-03-23T14:25:50.162Z,186.88
2019-03-23T14:28:16.453Z,393.35
2019-03-23T14:30:43.279Z,591.77
2019-03-23T14:33:09.685Z,572.83
2019-03-23T14:35:36.151Z,144.45
2019-03-23T14:38:02.644Z,106.95
2019-03-23T14:40:29.302Z,659.33
2019-03-23T14:42:55.634Z,91.17
2019-03-23T14:45:22.187Z,140.70
2019-03-23T14:47:49.132Z,324.60
2019-03-23T14:50:15.527Z,522.48
2019-03-23T14:52:41.992Z,82.82
2019-03-23T14:55:08.693Z,269.02
2019-03-23T14:57:35.098Z,180.72
2019-03-23T15:00:03.034Z,317.68
2019-03-23T15:02:29.457Z,86.45
2019-03-23T15:04:55.846Z,258.75
2019-03-23T15:07:22.276Z,102.32
2019-03-23T15:09:48.562Z,132.78
2019-03-23T15:12:15.485Z,343.95
2019-03-23T15:14:42.011Z,361.30
2019-03-23T15:17:08.451Z,117.90
2019-03-23T15:19:34.899Z,543.67
2019-03-23T15:22:01.204Z,721.50
2019-03-23T15:24:28.189Z,167.22
2019-03-23T15:26:54.725Z,280.60
2019-03-23T15:29:21.120Z,169.17
2019-03-23T15:31:47.539Z,136.68
2019-03-23T15:34:13.859Z,89.30
2019-03-23T15:36:40.238Z,124.78
2019-03-23T15:39:07.173Z,89.72
2019-03-23T15:41:34.178Z,156.55
2019-03-23T15:44:00.614Z,83.25
2019-03-23T15:46:27.210Z,55.90
2019-03-23T15:48:53.606Z,58.28
2019-03-23T15:51:20.076Z,66.57
2019-03-23T15:53:46.473Z,84.60
2019-03-23T15:56:12.907Z,63.98
2019-03-23T15:58:39.691Z,89.58
2019-03-23T16:01:06.289Z,61.88
2019-03-23T16:03:32.591Z,62.65
2019-03-23T16:05:59.342Z,54.35
2019-03-23T16:08:25.932Z,70.03
2019-03-23T16:10:52.368Z,63.52
2019-03-23T16:13:18.757Z,53.92
2019-03-23T16:15:45.059Z,51.92
2019-03-23T16:18:11.739Z,64.50
2019-03-23T16:20:38.044Z,78.70
2019-03-23T16:23:04.377Z,73.75
2019-03-23T16:25:30.699Z,69.67
2019-03-23T16:27:57.037Z,80.05
2019-03-23T16:30:30.945Z,70.55
2019-03-23T16:32:57.456Z,92.90
2019-03-23T16:35:23.825Z,84.50
2019-03-23T16:37:50.258Z,91.45
2019-03-23T16:40:16.615Z,112.47
2019-03-23T16:42:45.449Z,150.82
2019-03-23T16:45:11.746Z,181.50
2019-03-23T16:47:38.073Z,193.40
2019-03-23T16:50:06.022Z,301.90
2019-03-23T16:52:32.321Z,343.37
2019-03-23T16:54:58.901Z,346.73
2019-03-23T16:57:25.287Z,343.65
2019-03-23T16:59:51.751Z,326.77
2019-03-23T17:02:18.142Z,280.60
2019-03-23T17:04:44.465Z,253.20
2019-03-23T17:07:10.795Z,176.07
2019-03-23T17:09:37.104Z,148.55
2019-03-23T17:12:03.736Z,144.47
2019-03-23T17:14:30.127Z,134.47
2019-03-23T17:16:56.702Z,142.62
2019-03-23T17:26:45.261Z,283.15
2019-03-23T17:29:12.143Z,380.12
2019-03-23T17:31:38.736Z,390.98
2019-03-23T17:34:05.238Z,361.55
2019-03-23T17:36:31.641Z,461.05
2019-03-23T17:38:57.963Z,436.80
2019-03-23T17:41:24.715Z,482.50
2019-03-23T17:43:51.174Z,505.30
2019-03-23T17:46:18.122Z,528.23
2019-03-23T17:48:44.413Z,391.45
2019-03-23T17:51:10.739Z,482.30
2019-03-23T17:53:37.169Z,469.82
2019-03-23T17:56:03.486Z,339.00
2019-03-23T17:58:29.935Z,295.67
2019-03-23T18:00:56.221Z,238.82
2019-03-23T18:03:22.709Z,177.55
2019-03-23T18:05:49.098Z,255.98
2019-03-23T18:08:15.719Z,195.43
2019-03-23T18:10:42.003Z,395.40
2019-03-23T18:13:16.168Z,405.00
2019-03-23T18:15:37.135Z,428.42
2019-03-23T18:18:03.819Z,397.85
2019-03-23T18:20:30.406Z,301.98
2019-03-23T18:22:56.906Z,129.42
2019-03-23T18:25:23.357Z,77.75
2019-03-23T18:27:49.809Z,86.60
2019-03-23T18:30:39.629Z,92.90
2019-03-23T18:33:06.475Z,112.90
2019-03-23T18:35:32.871Z,163.87
2019-03-23T18:38:00.837Z,203.42
2019-03-23T18:40:27.127Z,210.80
2019-03-23T18:42:53.683Z,173.43
2019-03-23T18:45:20.086Z,139.55
2019-03-23T18:47:47.073Z,148.93
2019-03-23T18:50:13.496Z,164.97
2019-03-23T18:52:39.817Z,185.82
2019-03-23T18:55:06.677Z,179.25
2019-03-23T18:57:33.072Z,178.30
2019-03-23T18:59:59.418Z,185.12
2019-03-23T19:02:25.812Z,251.18
2019-03-23T19:04:52.159Z,262.68
2019-03-23T19:07:18.573Z,280.42
2019-03-23T19:09:45.208Z,294.55
2019-03-23T19:12:11.636Z,301.95
2019-03-23T19:14:38.194Z,303.15
2019-03-23T19:17:04.668Z,279.60
2019-03-23T19:19:31.104Z,274.58
2019-03-23T19:21:57.609Z,293.15
2019-03-23T19:24:24.196Z,288.73
2019-03-23T19:26:50.514Z,298.98
2019-03-23T19:29:17.204Z,288.68
2019-03-23T19:31:43.788Z,277.95
2019-03-23T19:34:10.426Z,275.68
2019-03-23T19:36:36.830Z,276.15
2019-03-23T19:39:06.571Z,282.27
2019-03-23T19:41:33.210Z,265.45
2019-03-23T19:43:59.662Z,258.73
2019-03-23T19:46:26.279Z,252.43
2019-03-23T19:48:53.632Z,250.25
2019-03-23T19:51:20.084Z,256.75
2019-03-23T19:53:46.527Z,240.75
2019-03-23T19:56:13.103Z,226.25
2019-03-23T19:58:39.445Z,216.50
2019-03-23T20:01:05.740Z,243.67
2019-03-23T20:03:32.117Z,224.32
2019-03-23T20:05:58.628Z,229.80
2019-03-23T20:08:25.689Z,228.20
2019-03-23T20:10:52.618Z,217.10
2019-03-23T20:13:18.933Z,216.53
2019-03-23T20:15:45.235Z,214.15
2019-03-23T20:18:11.676Z,220.97
2019-03-23T20:20:37.975Z,225.53
2019-03-23T20:23:04.673Z,213.70
2019-03-23T20:25:31.663Z,206.17
2019-03-23T20:27:58.147Z,193.93
2019-03-23T20:30:24.782Z,185.73
2019-03-23T20:32:51.547Z,173.93
2019-03-23T20:35:18.130Z,186.12
2019-03-23T20:37:44.457Z,192.13
2019-03-23T20:40:13.300Z,197.37
2019-03-23T20:42:39.967Z,201.62
2019-03-23T20:45:08.198Z,205.80
2019-03-23T20:47:34.490Z,192.35
2019-03-23T20:50:01.177Z,219.65
2019-03-23T20:52:27.677Z,234.45
2019-03-23T20:54:54.181Z,237.38
2019-03-23T20:57:24.123Z,236.57
2019-03-23T20:59:49.236Z,212.12
2019-03-23T21:02:15.654Z,212.85
2019-03-23T21:04:42.063Z,217.90
2019-03-23T21:07:08.658Z,223.70
2019-03-23T21:09:35.099Z,213.65
2019-03-23T21:12:01.650Z,215.18
2019-03-23T21:14:28.085Z,187.57
2019-03-23T21:16:54.469Z,169.45
2019-03-23T21:19:20.971Z,156.43
2019-03-23T21:21:47.358Z,167.37
2019-03-23T21:24:13.942Z,162.97
2019-03-23T21:26:40.266Z,152.17
2019-03-23T21:29:06.846Z,148.02
2019-03-23T21:31:33.174Z,132.32
2019-03-23T21:33:59.646Z,144.20
2019-03-23T21:36:26.725Z,140.45
2019-03-23T21:38:53.115Z,145.00
2019-03-23T21:41:19.543Z,147.65
2019-03-23T21:43:46.054Z,161.30
2019-03-23T21:46:12.424Z,172.45
2019-03-23T21:48:38.709Z,189.28
2019-03-23T21:51:05.075Z,186.50
2019-03-23T21:53:31.566Z,153.50
2019-03-23T21:55:57.871Z,136.90
2019-03-23T21:58:24.417Z,139.15
2019-03-23T22:00:50.737Z,140.07
2019-03-23T22:03:17.330Z,136.72
2019-03-23T22:05:43.745Z,151.32
2019-03-23T22:08:10.072Z,135.25
2019-03-23T22:10:36.365Z,148.70
2019-03-23T22:13:03.007Z,144.40
2019-03-23T22:15:33.647Z,121.75
2019-03-23T22:18:00.284Z,129.47
2019-03-23T22:20:26.676Z,129.93
2019-03-23T22:22:53.217Z,133.03
2019-03-23T22:25:19.515Z,125.82
2019-03-23T22:27:45.930Z,154.45
2019-03-23T22:30:13.080Z,124.12
2019-03-23T22:32:39.580Z,119.22
2019-03-23T22:35:06.619Z,138.20
2019-03-23T22:37:33.033Z,112.30
2019-03-23T22:39:59.602Z,119.22
2019-03-23T22:42:26.177Z,121.20
2019-03-23T22:44:52.947Z,126.25
2019-03-23T22:47:19.527Z,137.55
2019-03-23T22:49:45.941Z,125.45
2019-03-23T22:52:12.446Z,137.30
2019-03-23T22:54:39.121Z,124.70
2019-03-23T22:57:05.572Z,119.10
2019-03-23T22:59:32.191Z,116.05
2019-03-23T23:01:58.764Z,112.40
2019-03-23T23:04:25.150Z,117.00
2019-03-23T23:06:51.866Z,122.55
2019-03-23T23:09:18.184Z,116.57
2019-03-23T23:11:44.494Z,107.27
2019-03-23T23:14:11.093Z,100.55
2019-03-23T23:16:37.496Z,100.05
2019-03-23T23:19:03.963Z,104.97
2019-03-23T23:21:30.394Z,106.10
2019-03-23T23:23:56.936Z,103.02
2019-03-23T23:26:23.337Z,85.07
2019-03-23T23:28:49.693Z,97.20
2019-03-23T23:31:16.355Z,94.45
2019-03-23T23:33:43.043Z,94.97
2019-03-23T23:36:09.373Z,96.70
2019-03-23T23:38:35.915Z,101.87
2019-03-23T23:41:02.460Z,101.60
2019-03-23T23:43:28.763Z,107.90
2019-03-23T23:45:55.279Z,109.35
2019-03-23T23:48:21.976Z,116.65
2019-03-23T23:50:48.409Z,112.83
2019-03-23T23:53:15.003Z,107.70
2019-03-23T23:55:41.318Z,100.53
2019-03-23T23:58:07.709Z,103.07
